createdAt,value
2022-11-30T00:00:48.631Z,99331.69
2022-11-30T00:03:34.019Z,99334.44
2022-11-30T00:06:23.218Z,99336.44
2022-11-30T00:09:08.508Z,99336.44
2022-11-30T00:11:53.792Z,99337.63
2022-11-30T00:14:39.049Z,99339.63
2022-11-30T00:17:24.255Z,99336.06
2022-11-30T00:20:10.787Z,99340.41
2022-11-30T00:22:56.715Z,99339.63
2022-11-30T00:25:42.399Z,99349.91
2022-11-30T00:28:28.081Z,99345.94
2022-11-30T00:31:16.087Z,99349.91
2022-11-30T00:34:01.635Z,99350.69
2022-11-30T00:36:46.940Z,99352.69
2022-11-30T00:39:35.470Z,99357.03
2022-11-30T00:42:21.145Z,99355.47
2022-11-30T00:45:06.892Z,99353.88
2022-11-30T00:47:52.114Z,99360.22
2022-11-30T00:50:37.453Z,99354.25
2022-11-30T00:53:22.719Z,99345.56
2022-11-30T00:56:08.999Z,99342.78
2022-11-30T00:58:54.187Z,99342.78
2022-11-30T01:01:39.554Z,99346.78
2022-11-30T01:04:24.988Z,99351.09
2022-11-30T01:07:10.265Z,99348.31
2022-11-30T01:09:55.484Z,99348.31
2022-11-30T01:12:40.716Z,99346.78
2022-11-30T01:15:26.002Z,99355.09
2022-11-30T01:18:11.531Z,99349.53
2022-11-30T01:20:57.043Z,99348.31
2022-11-30T01:23:43.135Z,99344.00
2022-11-30T01:26:28.286Z,99341.22
2022-11-30T01:29:13.652Z,99337.25
2022-11-30T01:31:58.852Z,99332.91
2022-11-30T01:34:44.148Z,99337.25
2022-11-30T01:37:32.633Z,99344.78
2022-11-30T01:40:18.072Z,99342.00
2022-11-30T01:43:03.247Z,99342.00
2022-11-30T01:45:49.905Z,99341.22
2022-11-30T01:48:35.405Z,99348.75
2022-11-30T01:51:21.073Z,99341.22
2022-11-30T01:54:09.874Z,99338.47
2022-11-30T01:57:06.818Z,99339.66
2022-11-30T01:59:54.797Z,99341.22
2022-11-30T02:02:54.996Z,99338.84
2022-11-30T02:05:41.723Z,99339.66
2022-11-30T02:08:28.479Z,99345.22
2022-11-30T02:11:15.582Z,99347.97
2022-11-30T02:14:26.572Z,99349.94
2022-11-30T02:17:32.748Z,99369.34
2022-11-30T02:20:20.870Z,99360.25
2022-11-30T02:23:18.827Z,99363.00
2022-11-30T02:26:26.438Z,99363.41
2022-11-30T02:29:27.117Z,99360.25
2022-11-30T02:32:21.659Z,99365.78
2022-11-30T02:35:09.355Z,99361.44
2022-11-30T02:37:57.778Z,99356.69
2022-11-30T02:40:43.195Z,99357.09
2022-11-30T02:43:30.866Z,99354.31
2022-11-30T02:46:31.417Z,99358.69
2022-11-30T02:49:34.680Z,99362.22
2022-11-30T02:52:22.653Z,99355.91
2022-11-30T02:55:11.380Z,99362.63
2022-11-30T02:57:57.051Z,99363.84
2022-11-30T03:00:42.390Z,99367.41
2022-11-30T03:03:27.717Z,99369.38
2022-11-30T03:06:12.995Z,99361.84
2022-11-30T03:08:58.404Z,99369.38
2022-11-30T03:11:43.821Z,99374.13
2022-11-30T03:14:29.042Z,99370.16
2022-11-30T03:17:14.462Z,99369.38
2022-11-30T03:20:00.185Z,99361.06
2022-11-30T03:22:45.608Z,99372.94
2022-11-30T03:25:30.944Z,99372.94
2022-11-30T03:28:16.128Z,99374.94
2022-11-30T03:31:02.422Z,99377.69
2022-11-30T03:33:48.146Z,99371.34
2022-11-30T03:36:33.543Z,99375.31
2022-11-30T03:39:18.867Z,99374.13
2022-11-30T03:42:04.328Z,99382.44
2022-11-30T03:44:49.833Z,99380.88
2022-11-30T03:47:35.022Z,99376.09
2022-11-30T03:50:20.338Z,99376.09
2022-11-30T03:53:05.552Z,99381.66
2022-11-30T03:55:55.819Z,99380.09
2022-11-30T03:58:42.248Z,99387.63
2022-11-30T04:01:28.136Z,99384.84
2022-11-30T04:04:13.452Z,99381.25
2022-11-30T04:06:59.910Z,99385.63
2022-11-30T04:09:45.141Z,99390.38
2022-11-30T04:12:30.584Z,99389.56
2022-11-30T04:15:16.003Z,99379.31
2022-11-30T04:18:01.337Z,99385.63
2022-11-30T04:20:46.983Z,99385.63
2022-11-30T04:23:35.900Z,99391.94
2022-11-30T04:26:21.463Z,99390.38
2022-11-30T04:29:06.593Z,99393.94
2022-11-30T04:31:51.838Z,99394.34
2022-11-30T04:34:37.267Z,99396.72
2022-11-30T04:37:22.539Z,99396.72
2022-11-30T04:40:08.811Z,99393.94
2022-11-30T04:42:54.108Z,99398.28
2022-11-30T04:45:39.836Z,99396.72
2022-11-30T04:48:25.528Z,99379.31
2022-11-30T04:51:10.893Z,99391.97
2022-11-30T04:53:56.300Z,99395.88
2022-11-30T04:56:41.717Z,99404.59
2022-11-30T04:59:26.868Z,99405.34
2022-11-30T05:02:12.299Z,99392.66
2022-11-30T05:04:57.639Z,99410.50
2022-11-30T05:07:43.197Z,99404.53
2022-11-30T05:10:30.022Z,99398.19
2022-11-30T05:13:15.293Z,99402.13
2022-11-30T05:16:00.678Z,99406.88
2022-11-30T05:18:46.299Z,99402.88
2022-11-30T05:21:32.402Z,99406.81
2022-11-30T05:24:17.924Z,99413.59
2022-11-30T05:27:07.760Z,99420.69
2022-11-30T05:29:58.597Z,99423.47
2022-11-30T05:32:44.128Z,99427.41
2022-11-30T05:35:29.464Z,99421.09
2022-11-30T05:38:15.283Z,99423.81
2022-11-30T05:41:02.980Z,99430.50
2022-11-30T05:43:48.989Z,99438.03
2022-11-30T05:46:39.647Z,99442.72
2022-11-30T05:49:26.395Z,99441.50
2022-11-30T05:52:11.863Z,99441.88
2022-11-30T05:54:57.355Z,99449.38
2022-11-30T05:57:42.917Z,99446.97
2022-11-30T06:00:28.213Z,99454.50
2022-11-30T06:03:13.619Z,99450.16
2022-11-30T06:05:59.356Z,99457.34
2022-11-30T06:08:45.833Z,99460.97
2022-11-30T06:11:31.488Z,99463.75
2022-11-30T06:14:17.119Z,99460.22
2022-11-30T06:17:02.695Z,99462.59
2022-11-30T06:19:48.242Z,99463.78
2022-11-30T06:22:33.780Z,99462.22
2022-11-30T06:25:19.640Z,99460.28
2022-11-30T06:28:10.069Z,99456.69
2022-11-30T06:31:02.340Z,99460.66
2022-11-30T06:33:48.702Z,99459.03
2022-11-30T06:36:36.197Z,99456.72
2022-11-30T06:39:43.002Z,99462.25
2022-11-30T06:42:30.171Z,99460.28
2022-11-30T06:45:15.805Z,99474.94
2022-11-30T06:48:01.813Z,99471.78
2022-11-30T06:50:50.202Z,99470.97
2022-11-30T06:53:36.376Z,99488.03
2022-11-30T06:56:22.061Z,99485.25
2022-11-30T06:59:07.846Z,99487.25
2022-11-30T07:01:53.120Z,99486.88
2022-11-30T07:04:38.599Z,99485.28
2022-11-30T07:07:24.531Z,99490.81
2022-11-30T07:10:10.145Z,99499.13
2022-11-30T07:12:55.922Z,99493.19
2022-11-30T07:15:42.856Z,99497.56
2022-11-30T07:18:31.947Z,99500.34
2022-11-30T07:21:17.729Z,99503.50
2022-11-30T07:24:21.657Z,99497.19
2022-11-30T07:27:07.007Z,99503.13
2022-11-30T07:29:52.519Z,99499.56
2022-11-30T07:32:37.714Z,99503.13
2022-11-30T07:35:23.117Z,99503.13
2022-11-30T07:38:10.021Z,99513.81
2022-11-30T07:40:55.096Z,99507.50
2022-11-30T07:43:41.043Z,99506.72
2022-11-30T07:46:26.686Z,99512.25
2022-11-30T07:49:12.084Z,99504.72
2022-11-30T07:51:57.453Z,99513.81
2022-11-30T07:54:42.585Z,99510.66
2022-11-30T07:57:27.897Z,99509.88
2022-11-30T08:00:13.705Z,99513.44
2022-11-30T08:02:59.007Z,99520.97
2022-11-30T08:05:44.388Z,99515.44
2022-11-30T08:08:34.238Z,99511.09
2022-11-30T08:11:22.056Z,99506.34
2022-11-30T08:14:07.344Z,99509.09
2022-11-30T08:16:52.608Z,99512.66
2022-11-30T08:19:37.968Z,99502.78
2022-11-30T08:22:23.303Z,99508.31
2022-11-30T08:25:09.483Z,99505.94
2022-11-30T08:27:54.667Z,99512.28
2022-11-30T08:30:40.045Z,99511.50
2022-11-30T08:33:29.372Z,99514.66
2022-11-30T08:36:22.213Z,99521.78
2022-11-30T08:39:10.832Z,99520.97
2022-11-30T08:41:56.169Z,99527.34
2022-11-30T08:44:41.368Z,99525.75
2022-11-30T08:47:26.663Z,99524.19
2022-11-30T08:50:11.962Z,99531.28
2022-11-30T08:53:00.537Z,99532.06
2022-11-30T08:56:04.370Z,99530.50
2022-11-30T08:58:50.437Z,99534.06
2022-11-30T09:01:35.783Z,99532.50
2022-11-30T09:04:21.140Z,99547.13
2022-11-30T09:07:06.259Z,99540.03
2022-11-30T09:09:51.675Z,99544.34
2022-11-30T09:12:38.586Z,99534.47
2022-11-30T09:15:24.175Z,99545.56
2022-11-30T09:18:09.612Z,99550.28
2022-11-30T09:20:59.999Z,99542.41
2022-11-30T09:23:46.152Z,99537.63
2022-11-30T09:26:31.690Z,99544.75
2022-11-30T09:29:17.250Z,99540.41
2022-11-30T09:32:02.508Z,99535.66
2022-11-30T09:34:50.611Z,99538.41
2022-11-30T09:37:36.162Z,99536.03
2022-11-30T09:40:24.042Z,99541.19
2022-11-30T09:43:27.436Z,99547.13
2022-11-30T09:46:13.404Z,99538.81
2022-11-30T09:49:39.505Z,99540.81
2022-11-30T09:52:35.780Z,99538.41
2022-11-30T09:55:31.511Z,99536.03
2022-11-30T09:58:27.975Z,99534.47
2022-11-30T10:01:19.413Z,99527.72
2022-11-30T10:04:04.818Z,99523.41
2022-11-30T10:07:27.738Z,99532.50
2022-11-30T10:10:31.568Z,99532.91
2022-11-30T10:13:55.199Z,99535.69
2022-11-30T10:16:43.505Z,99528.16
2022-11-30T10:20:04.292Z,99534.47
2022-11-30T10:23:20.680Z,99525.78
2022-11-30T10:26:16.219Z,99529.34
2022-11-30T10:29:27.199Z,99530.16
2022-11-30T10:32:19.771Z,99534.47
2022-11-30T10:35:33.579Z,99525.78
2022-11-30T10:38:41.999Z,99529.72
2022-11-30T10:41:48.879Z,99528.94
2022-11-30T10:44:40.028Z,99527.72
2022-11-30T10:47:28.634Z,99532.50
2022-11-30T10:50:15.843Z,99536.03
2022-11-30T10:53:02.197Z,99524.97
2022-11-30T10:56:00.620Z,99530.50
2022-11-30T10:59:04.536Z,99530.50
2022-11-30T11:01:50.117Z,99532.50
2022-11-30T11:04:35.893Z,99530.50
2022-11-30T11:07:21.309Z,99529.72
2022-11-30T11:10:16.447Z,99536.44
2022-11-30T11:13:02.901Z,99528.13
2022-11-30T11:16:00.724Z,99526.94
2022-11-30T11:18:57.318Z,99528.13
2022-11-30T11:21:49.148Z,99517.84
2022-11-30T11:24:35.469Z,99522.97
2022-11-30T11:27:30.827Z,99511.50
2022-11-30T11:30:29.679Z,99511.91
2022-11-30T11:33:15.141Z,99511.09
2022-11-30T11:36:06.371Z,99513.50
2022-11-30T11:38:51.990Z,99508.34
2022-11-30T11:41:38.873Z,99511.09
2022-11-30T11:44:28.020Z,99514.69
2022-11-30T11:47:25.509Z,99514.69
2022-11-30T11:51:05.643Z,99519.41
2022-11-30T11:53:54.041Z,99520.63
2022-11-30T11:56:40.073Z,99519.41
2022-11-30T11:59:47.557Z,99518.63
2022-11-30T12:02:52.203Z,99517.06
2022-11-30T12:05:45.541Z,99517.84
2022-11-30T12:08:38.430Z,99517.84
2022-11-30T12:11:30.006Z,99523.41
2022-11-30T12:14:17.611Z,99521.41
2022-11-30T12:17:06.424Z,99517.06
2022-11-30T12:20:18.348Z,99521.03
2022-11-30T12:23:52.287Z,99513.53
2022-11-30T12:27:09.895Z,99511.53
2022-11-30T12:30:02.308Z,99510.75
2022-11-30T12:32:59.609Z,99511.53
2022-11-30T12:35:56.932Z,99517.06
2022-11-30T12:39:19.859Z,99520.63
2022-11-30T12:42:14.657Z,99519.84
2022-11-30T12:45:19.299Z,99524.19
2022-11-30T12:48:22.848Z,99528.13
2022-11-30T12:51:08.307Z,99514.69
2022-11-30T12:54:02.754Z,99523.00
2022-11-30T12:56:55.073Z,99523.41
2022-11-30T12:59:49.518Z,99524.97
2022-11-30T13:03:08.198Z,99523.41
2022-11-30T13:06:01.147Z,99524.19
2022-11-30T13:08:55.081Z,99529.72
2022-11-30T13:11:43.383Z,99526.94
2022-11-30T13:14:30.870Z,99529.34
2022-11-30T13:17:19.203Z,99528.94
2022-11-30T13:20:28.770Z,99525.78
2022-11-30T13:23:35.963Z,99528.56
2022-11-30T13:26:45.074Z,99523.00
2022-11-30T13:29:56.077Z,99523.78
2022-11-30T13:32:58.592Z,99531.31
2022-11-30T13:35:54.135Z,99527.78
2022-11-30T13:38:39.456Z,99531.72
2022-11-30T13:41:25.241Z,99541.59
2022-11-30T13:44:29.576Z,99543.16
2022-11-30T13:47:27.795Z,99542.75
2022-11-30T13:50:26.726Z,99536.78
2022-11-30T13:53:28.798Z,99536.34
2022-11-30T13:56:34.895Z,99539.88
2022-11-30T13:59:23.473Z,99542.63
2022-11-30T14:02:34.093Z,99545.81
2022-11-30T14:05:38.102Z,99545.00
2022-11-30T14:08:23.970Z,99550.16
2022-11-30T14:11:34.375Z,99552.09
2022-11-30T14:14:45.759Z,99553.25
2022-11-30T14:17:35.198Z,99556.03
2022-11-30T14:20:37.719Z,99557.97
2022-11-30T14:23:47.107Z,99563.13
2022-11-30T14:26:40.174Z,99561.91
2022-11-30T14:29:34.823Z,99552.38
2022-11-30T14:32:30.291Z,99561.84
2022-11-30T14:35:18.393Z,99560.28
2022-11-30T14:38:16.374Z,99556.69
2022-11-30T14:41:01.611Z,99563.84
2022-11-30T14:43:59.140Z,99564.22
2022-11-30T14:46:44.568Z,99559.44
2022-11-30T14:49:30.405Z,99568.94
2022-11-30T14:52:31.252Z,99569.31
2022-11-30T14:55:26.490Z,99561.78
2022-11-30T14:58:23.901Z,99561.78
2022-11-30T15:01:23.979Z,99570.06
2022-11-30T15:04:17.640Z,99568.88
2022-11-30T15:07:03.300Z,99569.66
2022-11-30T15:09:51.941Z,99574.00
2022-11-30T15:12:40.551Z,99565.69
2022-11-30T15:15:28.071Z,99573.19
2022-11-30T15:18:19.645Z,99578.34
2022-11-30T15:21:17.330Z,99572.00
2022-11-30T15:24:03.100Z,99581.50
2022-11-30T15:27:04.310Z,99574.78
2022-11-30T15:29:56.898Z,99582.34
2022-11-30T15:32:49.873Z,99587.06
2022-11-30T15:35:57.359Z,99592.59
2022-11-30T15:38:41.808Z,99591.44
2022-11-30T15:41:27.424Z,99587.06
2022-11-30T15:44:36.533Z,99586.66
2022-11-30T15:47:48.979Z,99583.91
2022-11-30T15:50:39.549Z,99582.28
2022-11-30T15:53:47.219Z,99580.72
2022-11-30T15:56:32.661Z,99592.59
2022-11-30T15:59:25.654Z,99583.84
2022-11-30T16:02:43.753Z,99594.16
2022-11-30T16:05:28.992Z,99598.09
2022-11-30T16:08:17.942Z,99589.78
2022-11-30T16:11:08.078Z,99585.06
2022-11-30T16:13:53.548Z,99581.88
2022-11-30T16:16:38.955Z,99583.03
2022-11-30T16:19:24.245Z,99582.63
2022-11-30T16:22:12.793Z,99585.78
2022-11-30T16:24:58.229Z,99582.97
2022-11-30T16:27:43.973Z,99581.75
2022-11-30T16:30:30.547Z,99588.50
2022-11-30T16:33:18.990Z,99587.28
2022-11-30T16:36:09.099Z,99586.06
2022-11-30T16:38:54.929Z,99584.06
2022-11-30T16:41:40.737Z,99584.88
2022-11-30T16:44:26.073Z,99589.22
2022-11-30T16:47:11.340Z,99590.44
2022-11-30T16:49:56.756Z,99592.81
2022-11-30T16:52:42.890Z,99597.56
2022-11-30T16:55:35.018Z,99595.22
2022-11-30T16:58:20.297Z,99593.63
2022-11-30T17:01:07.523Z,99595.59
2022-11-30T17:03:53.213Z,99595.97
2022-11-30T17:06:38.473Z,99603.88
2022-11-30T17:09:23.740Z,99598.72
2022-11-30T17:12:09.523Z,99610.59
2022-11-30T17:14:54.723Z,99612.19
2022-11-30T17:17:40.202Z,99618.53
2022-11-30T17:20:27.096Z,99607.41
2022-11-30T17:23:12.859Z,99616.53
2022-11-30T17:25:58.177Z,99615.75
2022-11-30T17:28:43.699Z,99619.31
2022-11-30T17:31:29.743Z,99627.63
2022-11-30T17:34:15.301Z,99627.63
2022-11-30T17:37:00.649Z,99628.81
2022-11-30T17:39:45.891Z,99626.41
2022-11-30T17:42:31.147Z,99637.91
2022-11-30T17:45:16.569Z,99638.69
2022-11-30T17:48:01.743Z,99637.94
2022-11-30T17:50:52.336Z,99641.50
2022-11-30T17:53:42.247Z,99642.34
2022-11-30T17:56:27.829Z,99641.59
2022-11-30T17:59:13.351Z,99642.78
2022-11-30T18:01:59.001Z,99639.25
2022-11-30T18:04:44.414Z,99645.19
2022-11-30T18:07:30.206Z,99632.09
2022-11-30T18:10:16.287Z,99643.25
2022-11-30T18:13:01.422Z,99644.03
2022-11-30T18:15:47.463Z,99649.19
2022-11-30T18:18:33.367Z,99642.06
2022-11-30T18:21:21.470Z,99652.34
2022-11-30T18:24:07.667Z,99653.50
2022-11-30T18:26:53.537Z,99656.63
2022-11-30T18:29:38.800Z,99650.28
2022-11-30T18:32:24.105Z,99666.91
2022-11-30T18:35:10.065Z,99666.53
2022-11-30T18:37:55.909Z,99667.75
2022-11-30T18:40:42.158Z,99677.31
2022-11-30T18:43:27.977Z,99675.72
2022-11-30T18:46:14.422Z,99674.19
2022-11-30T18:49:01.191Z,99673.44
2022-11-30T18:51:46.462Z,99673.44
2022-11-30T18:54:33.242Z,99678.22
2022-11-30T18:57:18.689Z,99683.00
2022-11-30T19:00:05.632Z,99679.84
2022-11-30T19:02:51.287Z,99686.22
2022-11-30T19:05:39.677Z,99687.03
2022-11-30T19:08:25.245Z,99686.25
2022-11-30T19:11:10.693Z,99678.34
2022-11-30T19:13:57.452Z,99687.03
2022-11-30T19:16:43.753Z,99688.66
2022-11-30T19:19:29.049Z,99679.16
2022-11-30T19:22:14.256Z,99688.28
2022-11-30T19:24:59.792Z,99686.69
2022-11-30T19:27:45.149Z,99683.97
2022-11-30T19:30:30.550Z,99683.19
2022-11-30T19:33:15.761Z,99684.38
2022-11-30T19:36:02.144Z,99692.69
2022-11-30T19:38:47.870Z,99687.16
2022-11-30T19:41:33.229Z,99691.13
2022-11-30T19:44:18.552Z,99691.94
2022-11-30T19:47:03.752Z,99695.91
2022-11-30T19:49:48.977Z,99688.00
2022-11-30T19:52:34.375Z,99693.91
2022-11-30T19:55:19.629Z,99697.44
2022-11-30T19:58:04.877Z,99697.44
2022-11-30T20:00:50.117Z,99703.00
2022-11-30T20:03:35.663Z,99698.66
2022-11-30T20:06:25.173Z,99706.59
2022-11-30T20:09:11.293Z,99700.66
2022-11-30T20:11:57.192Z,99713.31
2022-11-30T20:14:42.472Z,99710.13
2022-11-30T20:17:27.751Z,99711.34
2022-11-30T20:20:13.786Z,99713.72
2022-11-30T20:22:59.165Z,99708.97
2022-11-30T20:25:44.668Z,99709.75
2022-11-30T20:28:29.997Z,99720.44
2022-11-30T20:31:17.581Z,99714.91
2022-11-30T20:34:03.665Z,99716.88
2022-11-30T20:36:48.904Z,99721.66
2022-11-30T20:39:34.160Z,99723.63
2022-11-30T20:42:19.480Z,99721.25
2022-11-30T20:45:05.120Z,99732.34
2022-11-30T20:47:50.564Z,99725.22
2022-11-30T20:50:36.178Z,99738.28
2022-11-30T20:53:21.587Z,99735.50
2022-11-30T20:56:08.943Z,99740.25
2022-11-30T20:58:54.004Z,99743.47
2022-11-30T21:01:44.633Z,99733.16
2022-11-30T21:04:30.214Z,99736.31
2022-11-30T21:07:16.279Z,99726.44
2022-11-30T21:10:01.844Z,99737.91
2022-11-30T21:12:47.115Z,99739.47
2022-11-30T21:15:32.512Z,99741.06
2022-11-30T21:18:17.770Z,99740.28
2022-11-30T21:21:07.917Z,99743.44
2022-11-30T21:23:53.608Z,99740.69
2022-11-30T21:26:41.509Z,99746.66
2022-11-30T21:29:27.088Z,99742.28
2022-11-30T21:32:12.765Z,99735.56
2022-11-30T21:34:58.027Z,99745.44
2022-11-30T21:37:43.366Z,99751.78
2022-11-30T21:40:28.602Z,99753.34
2022-11-30T21:43:13.862Z,99747.44
2022-11-30T21:46:11.690Z,99756.94
2022-11-30T21:48:57.435Z,99758.94
2022-11-30T21:51:43.919Z,99762.88
2022-11-30T21:54:29.414Z,99763.66
2022-11-30T21:57:14.564Z,99760.88
2022-11-30T21:59:59.824Z,99760.50
2022-11-30T22:02:45.835Z,99755.34
2022-11-30T22:05:31.013Z,99755.34
2022-11-30T22:08:16.432Z,99758.13
2022-11-30T22:11:04.165Z,99753.00
2022-11-30T22:13:51.231Z,99759.72
2022-11-30T22:16:37.014Z,99762.47
2022-11-30T22:19:22.783Z,99757.72
2022-11-30T22:22:08.075Z,99756.16
2022-11-30T22:24:55.273Z,99758.50
2022-11-30T22:27:40.441Z,99763.25
2022-11-30T22:30:25.712Z,99755.34
2022-11-30T22:33:11.062Z,99756.94
2022-11-30T22:35:56.396Z,99751.41
2022-11-30T22:38:42.199Z,99756.16
2022-11-30T22:41:28.493Z,99751.41
2022-11-30T22:44:15.969Z,99753.00
2022-11-30T22:47:01.313Z,99760.88
2022-11-30T22:49:46.806Z,99762.88
2022-11-30T22:53:01.336Z,99757.34
2022-11-30T22:55:37.959Z,99763.25
2022-11-30T22:58:23.094Z,99760.50
2022-11-30T23:01:10.652Z,99761.69
2022-11-30T23:04:01.252Z,99760.50
2022-11-30T23:06:48.228Z,99762.47
2022-11-30T23:09:33.722Z,99765.66
2022-11-30T23:12:36.096Z,99755.38
2022-11-30T23:15:24.593Z,99752.97
2022-11-30T23:18:09.975Z,99756.53
2022-11-30T23:20:56.209Z,99761.31
2022-11-30T23:23:43.140Z,99754.97
2022-11-30T23:26:31.298Z,99757.75
2022-11-30T23:29:17.742Z,99750.22
2022-11-30T23:32:03.343Z,99747.84
2022-11-30T23:34:50.751Z,99738.75
2022-11-30T23:37:36.621Z,99743.50
2022-11-30T23:40:21.771Z,99744.28
2022-11-30T23:43:07.191Z,99742.72
2022-11-30T23:45:52.404Z,99745.47
2022-11-30T23:48:38.319Z,99739.94
2022-11-30T23:51:23.900Z,99738.34
2022-11-30T23:54:09.325Z,99737.56
2022-11-30T23:56:54.872Z,99746.66
2022-11-30T23:59:40.084Z,99741.91
